sensor_id;sensor_type;location;lat;lon;timestamp;temperature;humidity
29777;DHT22;16677;52.224;7.484;2023-08-31T00:01:02;12.70;1.00
29777;DHT22;16677;52.224;7.484;2023-08-31T00:03:31;12.70;1.00
29777;DHT22;16677;52.224;7.484;2023-08-31T00:06:01;12.70;1.00
29777;DHT22;16677;52.224;7.484;2023-08-31T00:08:30;12.70;1.00
29777;DHT22;16677;52.224;7.484;2023-08-31T00:10:57;12.70;1.00
29777;DHT22;16677;52.224;7.484;2023-08-31T00:13:24;12.70;1.00
29777;DHT22;16677;52.224;7.484;2023-08-31T00:15:53;12.80;1.00
29777;DHT22;16677;52.224;7.484;2023-08-31T00:18:20;12.70;1.00
29777;DHT22;16677;52.224;7.484;2023-08-31T00:20:51;12.80;1.00
29777;DHT22;16677;52.224;7.484;2023-08-31T00:23:17;12.80;99.90
29777;DHT22;16677;52.224;7.484;2023-08-31T00:25:46;12.80;1.00
29777;DHT22;16677;52.224;7.484;2023-08-31T00:28:15;12.80;99.90
29777;DHT22;16677;52.224;7.484;2023-08-31T00:30:42;12.90;27.30
29777;DHT22;16677;52.224;7.484;2023-08-31T00:33:11;12.90;1.00
29777;DHT22;16677;52.224;7.484;2023-08-31T00:35:39;12.90;1.00
29777;DHT22;16677;52.224;7.484;2023-08-31T00:38:10;12.90;1.00
29777;DHT22;16677;52.224;7.484;2023-08-31T00:40:41;12.80;1.00
29777;DHT22;16677;52.224;7.484;2023-08-31T00:43:09;12.80;1.00
29777;DHT22;16677;52.224;7.484;2023-08-31T00:45:37;12.70;1.00
29777;DHT22;16677;52.224;7.484;2023-08-31T00:48:04;12.70;1.00
29777;DHT22;16677;52.224;7.484;2023-08-31T00:50:31;12.80;1.00
29777;DHT22;16677;52.224;7.484;2023-08-31T00:52:58;12.90;1.00
29777;DHT22;16677;52.224;7.484;2023-08-31T00:55:26;12.80;1.00
29777;DHT22;16677;52.224;7.484;2023-08-31T00:57:53;12.80;1.00
29777;DHT22;16677;52.224;7.484;2023-08-31T01:00:23;12.80;99.90
29777;DHT22;16677;52.224;7.484;2023-08-31T01:03:01;12.90;1.00
29777;DHT22;16677;52.224;7.484;2023-08-31T01:05:37;12.70;99.90
29777;DHT22;16677;52.224;7.484;2023-08-31T01:10:56;12.80;1.00
29777;DHT22;16677;52.224;7.484;2023-08-31T01:13:28;12.60;1.00
29777;DHT22;16677;52.224;7.484;2023-08-31T01:15:59;12.60;1.00
29777;DHT22;16677;52.224;7.484;2023-08-31T01:18:26;12.50;99.90
29777;DHT22;16677;52.224;7.484;2023-08-31T01:23:54;12.40;1.00
29777;DHT22;16677;52.224;7.484;2023-08-31T01:26:22;12.40;99.90
29777;DHT22;16677;52.224;7.484;2023-08-31T01:28:50;12.30;1.00
29777;DHT22;16677;52.224;7.484;2023-08-31T01:31:17;12.20;99.90
29777;DHT22;16677;52.224;7.484;2023-08-31T01:33:48;12.20;1.00
29777;DHT22;16677;52.224;7.484;2023-08-31T01:36:20;12.10;99.90
29777;DHT22;16677;52.224;7.484;2023-08-31T01:38:50;12.10;99.10
29777;DHT22;16677;52.224;7.484;2023-08-31T01:41:21;12.00;99.90
29777;DHT22;16677;52.224;7.484;2023-08-31T01:43:49;12.00;99.90
29777;DHT22;16677;52.224;7.484;2023-08-31T01:46:21;12.00;99.90
29777;DHT22;16677;52.224;7.484;2023-08-31T01:48:48;12.00;1.00
29777;DHT22;16677;52.224;7.484;2023-08-31T01:51:16;11.90;1.00
29777;DHT22;16677;52.224;7.484;2023-08-31T01:53:44;11.90;15.60
29777;DHT22;16677;52.224;7.484;2023-08-31T01:56:12;11.80;99.90
29777;DHT22;16677;52.224;7.484;2023-08-31T01:58:40;11.80;1.00
29777;DHT22;16677;52.224;7.484;2023-08-31T02:01:08;11.80;1.00
29777;DHT22;16677;52.224;7.484;2023-08-31T02:03:35;11.70;81.70
29777;DHT22;16677;52.224;7.484;2023-08-31T02:06:03;11.70;99.90
29777;DHT22;16677;52.224;7.484;2023-08-31T02:08:31;11.70;99.90
29777;DHT22;16677;52.224;7.484;2023-08-31T02:10:59;11.70;1.00
29777;DHT22;16677;52.224;7.484;2023-08-31T02:13:26;11.60;1.00
29777;DHT22;16677;52.224;7.484;2023-08-31T02:15:54;11.60;1.00
29777;DHT22;16677;52.224;7.484;2023-08-31T02:18:36;11.60;99.90
29777;DHT22;16677;52.224;7.484;2023-08-31T02:21:03;11.60;99.90
29777;DHT22;16677;52.224;7.484;2023-08-31T02:23:34;11.60;1.00
29777;DHT22;16677;52.224;7.484;2023-08-31T02:26:00;11.60;1.00
29777;DHT22;16677;52.224;7.484;2023-08-31T02:28:27;11.60;1.00
29777;DHT22;16677;52.224;7.484;2023-08-31T02:30:58;11.60;1.00
29777;DHT22;16677;52.224;7.484;2023-08-31T02:33:26;11.70;1.00
29777;DHT22;16677;52.224;7.484;2023-08-31T02:35:53;11.70;1.00
29777;DHT22;16677;52.224;7.484;2023-08-31T02:38:20;11.70;1.00
29777;DHT22;16677;52.224;7.484;2023-08-31T02:40:47;11.70;1.00
29777;DHT22;16677;52.224;7.484;2023-08-31T02:43:17;11.80;1.00
29777;DHT22;16677;52.224;7.484;2023-08-31T02:45:44;11.70;99.90
29777;DHT22;16677;52.224;7.484;2023-08-31T02:48:11;11.80;99.90
29777;DHT22;16677;52.224;7.484;2023-08-31T02:50:38;11.80;99.90
29777;DHT22;16677;52.224;7.484;2023-08-31T02:53:05;11.70;1.00
29777;DHT22;16677;52.224;7.484;2023-08-31T02:55:32;11.70;1.00
29777;DHT22;16677;52.224;7.484;2023-08-31T02:58:00;11.70;54.30
29777;DHT22;16677;52.224;7.484;2023-08-31T03:00:27;11.70;99.90
29777;DHT22;16677;52.224;7.484;2023-08-31T03:02:55;11.70;99.90
29777;DHT22;16677;52.224;7.484;2023-08-31T03:05:22;11.70;99.90
29777;DHT22;16677;52.224;7.484;2023-08-31T03:07:49;11.70;99.90
29777;DHT22;16677;52.224;7.484;2023-08-31T03:10:16;11.70;99.90
29777;DHT22;16677;52.224;7.484;2023-08-31T03:12:43;11.70;99.90
29777;DHT22;16677;52.224;7.484;2023-08-31T03:15:10;11.70;99.90
29777;DHT22;16677;52.224;7.484;2023-08-31T03:17:37;11.70;99.90
29777;DHT22;16677;52.224;7.484;2023-08-31T03:20:04;11.70;75.60
29777;DHT22;16677;52.224;7.484;2023-08-31T03:22:35;11.80;1.00
29777;DHT22;16677;52.224;7.484;2023-08-31T03:25:02;11.80;99.90
29777;DHT22;16677;52.224;7.484;2023-08-31T03:27:29;11.80;1.00
29777;DHT22;16677;52.224;7.484;2023-08-31T03:29:56;11.80;99.90
29777;DHT22;16677;52.224;7.484;2023-08-31T03:32:23;11.80;1.00
29777;DHT22;16677;52.224;7.484;2023-08-31T03:34:51;11.80;99.90
29777;DHT22;16677;52.224;7.484;2023-08-31T03:37:18;11.80;99.90
29777;DHT22;16677;52.224;7.484;2023-08-31T03:39:47;11.80;99.90
29777;DHT22;16677;52.224;7.484;2023-08-31T03:42:14;11.90;99.90
29777;DHT22;16677;52.224;7.484;2023-08-31T03:44:42;11.90;1.00
29777;DHT22;16677;52.224;7.484;2023-08-31T03:47:08;12.00;7.50
29777;DHT22;16677;52.224;7.484;2023-08-31T03:49:35;11.90;1.00
29777;DHT22;16677;52.224;7.484;2023-08-31T03:52:03;11.90;1.00
29777;DHT22;16677;52.224;7.484;2023-08-31T03:54:30;11.90;1.00
29777;DHT22;16677;52.224;7.484;2023-08-31T03:56:57;11.80;99.90
29777;DHT22;16677;52.224;7.484;2023-08-31T03:59:25;11.80;99.90
29777;DHT22;16677;52.224;7.484;2023-08-31T04:01:52;11.80;1.00
29777;DHT22;16677;52.224;7.484;2023-08-31T04:04:19;11.70;99.90
29777;DHT22;16677;52.224;7.484;2023-08-31T04:06:47;11.80;1.00
29777;DHT22;16677;52.224;7.484;2023-08-31T04:09:14;11.70;1.00
29777;DHT22;16677;52.224;7.484;2023-08-31T04:11:41;11.70;1.00
29777;DHT22;16677;52.224;7.484;2023-08-31T04:14:08;11.60;99.90
29777;DHT22;16677;52.224;7.484;2023-08-31T04:16:35;11.60;99.90
29777;DHT22;16677;52.224;7.484;2023-08-31T04:19:05;11.60;1.00
29777;DHT22;16677;52.224;7.484;2023-08-31T04:21:32;11.60;1.00
29777;DHT22;16677;52.224;7.484;2023-08-31T04:23:59;11.70;1.00
29777;DHT22;16677;52.224;7.484;2023-08-31T04:26:27;11.70;36.00
29777;DHT22;16677;52.224;7.484;2023-08-31T04:28:55;11.60;99.90
29777;DHT22;16677;52.224;7.484;2023-08-31T04:31:23;11.70;99.90
29777;DHT22;16677;52.224;7.484;2023-08-31T04:33:50;11.70;99.90
29777;DHT22;16677;52.224;7.484;2023-08-31T04:36:22;11.70;99.90
29777;DHT22;16677;52.224;7.484;2023-08-31T04:38:52;11.60;99.90
29777;DHT22;16677;52.224;7.484;2023-08-31T04:41:19;11.50;99.90
29777;DHT22;16677;52.224;7.484;2023-08-31T04:43:46;11.40;1.00
29777;DHT22;16677;52.224;7.484;2023-08-31T04:46:15;11.40;1.00
29777;DHT22;16677;52.224;7.484;2023-08-31T04:48:42;11.50;1.00
29777;DHT22;16677;52.224;7.484;2023-08-31T04:51:30;11.40;1.00
29777;DHT22;16677;52.224;7.484;2023-08-31T04:53:58;11.50;1.00
29777;DHT22;16677;52.224;7.484;2023-08-31T04:56:29;11.50;1.00
29777;DHT22;16677;52.224;7.484;2023-08-31T04:58:56;11.60;1.00
29777;DHT22;16677;52.224;7.484;2023-08-31T05:01:24;11.70;1.00
29777;DHT22;16677;52.224;7.484;2023-08-31T05:03:51;11.70;1.00
29777;DHT22;16677;52.224;7.484;2023-08-31T05:06:18;11.80;99.90
29777;DHT22;16677;52.224;7.484;2023-08-31T05:08:46;11.80;99.90
29777;DHT22;16677;52.224;7.484;2023-08-31T05:11:13;11.80;99.90
29777;DHT22;16677;52.224;7.484;2023-08-31T05:13:40;11.80;99.90
29777;DHT22;16677;52.224;7.484;2023-08-31T05:16:13;11.70;99.90
29777;DHT22;16677;52.224;7.484;2023-08-31T05:18:40;11.80;99.90
29777;DHT22;16677;52.224;7.484;2023-08-31T05:21:08;11.90;99.90
29777;DHT22;16677;52.224;7.484;2023-08-31T05:23:35;12.00;99.90
29777;DHT22;16677;52.224;7.484;2023-08-31T05:26:02;11.90;1.00
29777;DHT22;16677;52.224;7.484;2023-08-31T05:28:29;12.00;93.10
29777;DHT22;16677;52.224;7.484;2023-08-31T05:30:57;12.00;1.00
29777;DHT22;16677;52.224;7.484;2023-08-31T05:33:25;12.00;1.00
29777;DHT22;16677;52.224;7.484;2023-08-31T05:36:00;12.10;1.00
29777;DHT22;16677;52.224;7.484;2023-08-31T05:38:28;12.20;1.00
29777;DHT22;16677;52.224;7.484;2023-08-31T05:41:04;12.30;1.00
29777;DHT22;16677;52.224;7.484;2023-08-31T05:43:35;12.30;1.00
29777;DHT22;16677;52.224;7.484;2023-08-31T05:46:03;12.60;99.90
29777;DHT22;16677;52.224;7.484;2023-08-31T05:48:30;12.70;1.00
29777;DHT22;16677;52.224;7.484;2023-08-31T05:50:58;12.70;99.90
29777;DHT22;16677;52.224;7.484;2023-08-31T05:53:25;12.80;99.90
29777;DHT22;16677;52.224;7.484;2023-08-31T05:55:52;13.00;1.00
29777;DHT22;16677;52.224;7.484;2023-08-31T05:58:20;13.10;1.00
29777;DHT22;16677;52.224;7.484;2023-08-31T06:00:48;13.20;99.90
29777;DHT22;16677;52.224;7.484;2023-08-31T06:03:15;13.40;99.90
29777;DHT22;16677;52.224;7.484;2023-08-31T06:05:42;13.80;1.00
29777;DHT22;16677;52.224;7.484;2023-08-31T06:08:09;13.60;1.00
29777;DHT22;16677;52.224;7.484;2023-08-31T06:10:36;13.90;99.90
29777;DHT22;16677;52.224;7.484;2023-08-31T06:13:03;13.80;99.90
29777;DHT22;16677;52.224;7.484;2023-08-31T06:15:30;13.80;99.90
29777;DHT22;16677;52.224;7.484;2023-08-31T06:17:57;13.90;99.90
29777;DHT22;16677;52.224;7.484;2023-08-31T06:20:25;13.90;99.90
29777;DHT22;16677;52.224;7.484;2023-08-31T06:22:55;14.20;99.90
29777;DHT22;16677;52.224;7.484;2023-08-31T06:25:22;14.20;99.90
29777;DHT22;16677;52.224;7.484;2023-08-31T06:27:51;14.30;1.00
29777;DHT22;16677;52.224;7.484;2023-08-31T06:30:18;14.40;99.90
29777;DHT22;16677;52.224;7.484;2023-08-31T06:32:46;14.20;99.90
29777;DHT22;16677;52.224;7.484;2023-08-31T06:35:13;14.10;1.00
29777;DHT22;16677;52.224;7.484;2023-08-31T06:37:42;14.20;1.00
29777;DHT22;16677;52.224;7.484;2023-08-31T06:40:10;14.00;1.00
29777;DHT22;16677;52.224;7.484;2023-08-31T06:42:37;14.00;99.90
29777;DHT22;16677;52.224;7.484;2023-08-31T06:45:05;14.00;29.40
29777;DHT22;16677;52.224;7.484;2023-08-31T06:47:32;13.90;1.00
29777;DHT22;16677;52.224;7.484;2023-08-31T06:50:00;14.00;99.90
29777;DHT22;16677;52.224;7.484;2023-08-31T06:52:27;14.10;99.90
29777;DHT22;16677;52.224;7.484;2023-08-31T06:54:58;14.20;99.90
29777;DHT22;16677;52.224;7.484;2023-08-31T06:57:26;14.20;99.90
29777;DHT22;16677;52.224;7.484;2023-08-31T06:59:53;14.20;99.90
29777;DHT22;16677;52.224;7.484;2023-08-31T07:02:20;14.10;99.90
29777;DHT22;16677;52.224;7.484;2023-08-31T07:04:49;14.00;99.90
29777;DHT22;16677;52.224;7.484;2023-08-31T07:07:16;14.20;99.90
29777;DHT22;16677;52.224;7.484;2023-08-31T07:09:45;14.00;99.90
29777;DHT22;16677;52.224;7.484;2023-08-31T07:12:12;13.90;1.00
29777;DHT22;16677;52.224;7.484;2023-08-31T07:14:39;14.10;1.00
29777;DHT22;16677;52.224;7.484;2023-08-31T07:17:06;14.00;1.00
29777;DHT22;16677;52.224;7.484;2023-08-31T07:19:36;14.00;99.90
29777;DHT22;16677;52.224;7.484;2023-08-31T07:22:04;14.00;99.90
29777;DHT22;16677;52.224;7.484;2023-08-31T07:24:33;14.10;99.90
29777;DHT22;16677;52.224;7.484;2023-08-31T07:27:05;14.20;1.00
29777;DHT22;16677;52.224;7.484;2023-08-31T07:29:32;14.60;1.00
29777;DHT22;16677;52.224;7.484;2023-08-31T07:32:00;14.70;1.00
29777;DHT22;16677;52.224;7.484;2023-08-31T07:34:33;14.50;99.90
29777;DHT22;16677;52.224;7.484;2023-08-31T07:37:01;14.50;99.90
29777;DHT22;16677;52.224;7.484;2023-08-31T07:39:28;14.20;1.00
29777;DHT22;16677;52.224;7.484;2023-08-31T07:41:55;14.30;99.90
29777;DHT22;16677;52.224;7.484;2023-08-31T07:44:23;14.50;1.00
29777;DHT22;16677;52.224;7.484;2023-08-31T07:46:54;14.50;99.90
29777;DHT22;16677;52.224;7.484;2023-08-31T07:49:23;14.50;99.90
29777;DHT22;16677;52.224;7.484;2023-08-31T07:51:50;14.60;99.90
29777;DHT22;16677;52.224;7.484;2023-08-31T07:54:23;14.80;1.00
29777;DHT22;16677;52.224;7.484;2023-08-31T07:56:50;15.00;1.00
29777;DHT22;16677;52.224;7.484;2023-08-31T07:59:17;14.90;1.00
29777;DHT22;16677;52.224;7.484;2023-08-31T08:01:45;14.80;23.50
29777;DHT22;16677;52.224;7.484;2023-08-31T08:04:12;15.10;1.00
29777;DHT22;16677;52.224;7.484;2023-08-31T08:06:40;15.20;1.00
29777;DHT22;16677;52.224;7.484;2023-08-31T08:09:07;15.70;99.90
29777;DHT22;16677;52.224;7.484;2023-08-31T08:11:34;15.60;99.90
29777;DHT22;16677;52.224;7.484;2023-08-31T08:14:02;15.80;99.90
29777;DHT22;16677;52.224;7.484;2023-08-31T08:16:29;15.70;75.10
29777;DHT22;16677;52.224;7.484;2023-08-31T08:18:57;15.00;99.90
29777;DHT22;16677;52.224;7.484;2023-08-31T08:21:23;15.30;1.00
29777;DHT22;16677;52.224;7.484;2023-08-31T08:23:50;15.60;1.00
29777;DHT22;16677;52.224;7.484;2023-08-31T08:26:20;15.80;1.00
29777;DHT22;16677;52.224;7.484;2023-08-31T08:28:47;15.80;1.00
29777;DHT22;16677;52.224;7.484;2023-08-31T08:31:14;15.80;1.00
29777;DHT22;16677;52.224;7.484;2023-08-31T08:33:41;15.70;1.00
29777;DHT22;16677;52.224;7.484;2023-08-31T08:36:09;15.70;1.00
29777;DHT22;16677;52.224;7.484;2023-08-31T08:38:36;15.80;1.00
29777;DHT22;16677;52.224;7.484;2023-08-31T08:41:06;15.80;1.00
29777;DHT22;16677;52.224;7.484;2023-08-31T08:43:34;15.80;1.00
29777;DHT22;16677;52.224;7.484;2023-08-31T08:46:05;16.00;1.00
29777;DHT22;16677;52.224;7.484;2023-08-31T08:48:34;15.90;1.00
29777;DHT22;16677;52.224;7.484;2023-08-31T08:51:05;15.90;1.00
29777;DHT22;16677;52.224;7.484;2023-08-31T08:53:33;16.10;1.00
29777;DHT22;16677;52.224;7.484;2023-08-31T08:56:01;16.40;1.00
29777;DHT22;16677;52.224;7.484;2023-08-31T08:58:28;16.20;1.00
29777;DHT22;16677;52.224;7.484;2023-08-31T09:00:55;16.70;99.90
29777;DHT22;16677;52.224;7.484;2023-08-31T09:03:25;16.50;99.90
29777;DHT22;16677;52.224;7.484;2023-08-31T09:05:52;16.10;1.00
29777;DHT22;16677;52.224;7.484;2023-08-31T09:08:26;15.90;1.00
29777;DHT22;16677;52.224;7.484;2023-08-31T09:10:56;16.00;1.00
29777;DHT22;16677;52.224;7.484;2023-08-31T09:13:28;16.40;1.00
29777;DHT22;16677;52.224;7.484;2023-08-31T09:15:58;16.20;99.90
29777;DHT22;16677;52.224;7.484;2023-08-31T09:18:30;16.50;99.90
29777;DHT22;16677;52.224;7.484;2023-08-31T09:21:00;16.40;99.90
29777;DHT22;16677;52.224;7.484;2023-08-31T09:23:27;16.50;99.90
29777;DHT22;16677;52.224;7.484;2023-08-31T09:25:56;16.70;99.90
29777;DHT22;16677;52.224;7.484;2023-08-31T09:28:27;16.30;99.90
29777;DHT22;16677;52.224;7.484;2023-08-31T09:31:13;16.50;99.90
29777;DHT22;16677;52.224;7.484;2023-08-31T09:33:49;16.60;99.90
29777;DHT22;16677;52.224;7.484;2023-08-31T09:36:17;16.80;99.90
29777;DHT22;16677;52.224;7.484;2023-08-31T09:38:44;16.40;99.90
29777;DHT22;16677;52.224;7.484;2023-08-31T09:41:12;16.70;99.90
29777;DHT22;16677;52.224;7.484;2023-08-31T09:43:39;17.10;99.90
29777;DHT22;16677;52.224;7.484;2023-08-31T09:46:06;17.20;99.90
29777;DHT22;16677;52.224;7.484;2023-08-31T09:48:34;17.60;99.90
29777;DHT22;16677;52.224;7.484;2023-08-31T09:51:04;17.60;99.90
29777;DHT22;16677;52.224;7.484;2023-08-31T09:53:31;16.90;99.90
29777;DHT22;16677;52.224;7.484;2023-08-31T09:55:58;17.50;99.90
29777;DHT22;16677;52.224;7.484;2023-08-31T09:58:27;17.80;99.90
29777;DHT22;16677;52.224;7.484;2023-08-31T10:00:55;17.20;99.90
29777;DHT22;16677;52.224;7.484;2023-08-31T10:03:23;17.10;99.90
29777;DHT22;16677;52.224;7.484;2023-08-31T10:05:52;17.30;99.90
29777;DHT22;16677;52.224;7.484;2023-08-31T10:08:20;17.30;99.90
29777;DHT22;16677;52.224;7.484;2023-08-31T10:10:48;17.30;99.90
29777;DHT22;16677;52.224;7.484;2023-08-31T10:13:19;17.00;99.90
29777;DHT22;16677;52.224;7.484;2023-08-31T10:15:49;17.00;99.90
29777;DHT22;16677;52.224;7.484;2023-08-31T10:18:16;16.80;99.90
29777;DHT22;16677;52.224;7.484;2023-08-31T10:20:44;17.10;99.90
29777;DHT22;16677;52.224;7.484;2023-08-31T10:23:14;17.70;99.90
29777;DHT22;16677;52.224;7.484;2023-08-31T10:28:25;17.40;99.90
29777;DHT22;16677;52.224;7.484;2023-08-31T10:36:16;17.50;99.90
29777;DHT22;16677;52.224;7.484;2023-08-31T10:38:59;17.10;99.90
29777;DHT22;16677;52.224;7.484;2023-08-31T10:41:36;17.30;99.90
29777;DHT22;16677;52.224;7.484;2023-08-31T10:44:22;17.40;99.90
29777;DHT22;16677;52.224;7.484;2023-08-31T10:46:53;17.10;99.90
29777;DHT22;16677;52.224;7.484;2023-08-31T10:49:23;16.60;1.00
29777;DHT22;16677;52.224;7.484;2023-08-31T10:51:56;16.40;1.00
29777;DHT22;16677;52.224;7.484;2023-08-31T10:54:24;16.30;1.00
29777;DHT22;16677;52.224;7.484;2023-08-31T10:59:22;16.40;1.00
29777;DHT22;16677;52.224;7.484;2023-08-31T11:04:25;15.70;25.30
29777;DHT22;16677;52.224;7.484;2023-08-31T11:07:16;15.60;1.00
29777;DHT22;16677;52.224;7.484;2023-08-31T11:09:44;15.60;1.00
29777;DHT22;16677;52.224;7.484;2023-08-31T11:12:12;15.80;1.00
29777;DHT22;16677;52.224;7.484;2023-08-31T11:14:40;16.20;1.00
29777;DHT22;16677;52.224;7.484;2023-08-31T11:17:08;16.50;1.00
29777;DHT22;16677;52.224;7.484;2023-08-31T11:19:37;16.70;1.00
29777;DHT22;16677;52.224;7.484;2023-08-31T11:22:05;17.20;1.00
29777;DHT22;16677;52.224;7.484;2023-08-31T11:24:32;17.60;1.00
29777;DHT22;16677;52.224;7.484;2023-08-31T11:27:00;17.60;99.90
29777;DHT22;16677;52.224;7.484;2023-08-31T11:29:30;17.70;99.90
29777;DHT22;16677;52.224;7.484;2023-08-31T11:31:57;17.50;99.90
29777;DHT22;16677;52.224;7.484;2023-08-31T11:34:27;17.80;99.90
29777;DHT22;16677;52.224;7.484;2023-08-31T11:36:54;17.90;99.90
29777;DHT22;16677;52.224;7.484;2023-08-31T11:39:24;17.90;99.90
29777;DHT22;16677;52.224;7.484;2023-08-31T11:41:51;18.00;99.90
29777;DHT22;16677;52.224;7.484;2023-08-31T11:44:21;18.00;99.90
29777;DHT22;16677;52.224;7.484;2023-08-31T11:46:49;18.10;99.90
29777;DHT22;16677;52.224;7.484;2023-08-31T11:49:19;17.90;99.90
29777;DHT22;16677;52.224;7.484;2023-08-31T11:51:49;17.60;99.90
29777;DHT22;16677;52.224;7.484;2023-08-31T11:54:19;17.70;99.90
29777;DHT22;16677;52.224;7.484;2023-08-31T11:56:47;17.70;99.90
29777;DHT22;16677;52.224;7.484;2023-08-31T11:59:19;17.90;99.90
29777;DHT22;16677;52.224;7.484;2023-08-31T12:01:47;17.70;99.90
29777;DHT22;16677;52.224;7.484;2023-08-31T12:04:21;17.70;99.90
29777;DHT22;16677;52.224;7.484;2023-08-31T12:06:53;17.60;99.90
29777;DHT22;16677;52.224;7.484;2023-08-31T12:09:27;17.70;99.90
29777;DHT22;16677;52.224;7.484;2023-08-31T12:11:57;18.10;99.90
29777;DHT22;16677;52.224;7.484;2023-08-31T12:14:29;18.00;99.90
29777;DHT22;16677;52.224;7.484;2023-08-31T12:17:05;18.30;99.90
29777;DHT22;16677;52.224;7.484;2023-08-31T12:19:33;18.20;99.90
29777;DHT22;16677;52.224;7.484;2023-08-31T12:22:02;17.80;99.90
29777;DHT22;16677;52.224;7.484;2023-08-31T12:24:37;17.80;99.90
29777;DHT22;16677;52.224;7.484;2023-08-31T12:27:06;17.80;99.90
29777;DHT22;16677;52.224;7.484;2023-08-31T12:29:33;17.90;99.90
29777;DHT22;16677;52.224;7.484;2023-08-31T12:32:01;17.80;99.90
29777;DHT22;16677;52.224;7.484;2023-08-31T12:34:29;17.80;99.90
29777;DHT22;16677;52.224;7.484;2023-08-31T12:36:57;17.60;99.90
29777;DHT22;16677;52.224;7.484;2023-08-31T12:39:32;17.60;99.90
29777;DHT22;16677;52.224;7.484;2023-08-31T12:41:59;17.70;99.90
29777;DHT22;16677;52.224;7.484;2023-08-31T12:44:46;17.40;99.90
29777;DHT22;16677;52.224;7.484;2023-08-31T12:47:13;17.70;99.90
29777;DHT22;16677;52.224;7.484;2023-08-31T12:49:41;17.80;99.90
29777;DHT22;16677;52.224;7.484;2023-08-31T12:52:10;18.20;99.90
29777;DHT22;16677;52.224;7.484;2023-08-31T12:54:37;18.30;99.90
29777;DHT22;16677;52.224;7.484;2023-08-31T12:57:04;18.60;99.90
29777;DHT22;16677;52.224;7.484;2023-08-31T12:59:32;18.80;99.90
29777;DHT22;16677;52.224;7.484;2023-08-31T13:01:59;18.70;99.90
29777;DHT22;16677;52.224;7.484;2023-08-31T13:04:26;18.80;99.90
29777;DHT22;16677;52.224;7.484;2023-08-31T13:06:55;18.70;99.90
29777;DHT22;16677;52.224;7.484;2023-08-31T13:09:22;18.70;99.90
29777;DHT22;16677;52.224;7.484;2023-08-31T13:11:49;19.10;99.90
29777;DHT22;16677;52.224;7.484;2023-08-31T13:14:16;19.30;99.90
29777;DHT22;16677;52.224;7.484;2023-08-31T13:16:43;18.40;99.90
29777;DHT22;16677;52.224;7.484;2023-08-31T13:19:10;18.70;99.90
29777;DHT22;16677;52.224;7.484;2023-08-31T13:21:37;18.50;99.90
29777;DHT22;16677;52.224;7.484;2023-08-31T13:24:04;18.70;99.90
29777;DHT22;16677;52.224;7.484;2023-08-31T13:26:31;18.90;99.90
29777;DHT22;16677;52.224;7.484;2023-08-31T13:29:01;18.90;99.90
29777;DHT22;16677;52.224;7.484;2023-08-31T13:31:29;19.10;99.90
29777;DHT22;16677;52.224;7.484;2023-08-31T13:33:56;18.90;99.90
29777;DHT22;16677;52.224;7.484;2023-08-31T13:36:23;19.00;99.90
29777;DHT22;16677;52.224;7.484;2023-08-31T13:38:50;18.70;99.90
29777;DHT22;16677;52.224;7.484;2023-08-31T13:41:17;18.70;99.90
29777;DHT22;16677;52.224;7.484;2023-08-31T13:43:44;18.10;99.90
29777;DHT22;16677;52.224;7.484;2023-08-31T13:46:11;17.50;99.90
29777;DHT22;16677;52.224;7.484;2023-08-31T13:48:39;17.20;99.90
29777;DHT22;16677;52.224;7.484;2023-08-31T13:51:06;16.80;99.90
29777;DHT22;16677;52.224;7.484;2023-08-31T13:53:33;16.90;99.90
29777;DHT22;16677;52.224;7.484;2023-08-31T13:56:01;16.90;99.90
29777;DHT22;16677;52.224;7.484;2023-08-31T13:58:28;17.00;99.90
29777;DHT22;16677;52.224;7.484;2023-08-31T14:01:00;16.70;99.90
29777;DHT22;16677;52.224;7.484;2023-08-31T14:03:27;16.90;99.90
29777;DHT22;16677;52.224;7.484;2023-08-31T14:05:54;17.40;99.90
29777;DHT22;16677;52.224;7.484;2023-08-31T14:08:21;16.90;99.90
29777;DHT22;16677;52.224;7.484;2023-08-31T14:10:48;17.20;99.90
29777;DHT22;16677;52.224;7.484;2023-08-31T14:13:15;17.50;99.90
29777;DHT22;16677;52.224;7.484;2023-08-31T14:15:45;17.90;99.90
29777;DHT22;16677;52.224;7.484;2023-08-31T14:18:13;17.40;99.90
29777;DHT22;16677;52.224;7.484;2023-08-31T14:20:40;17.50;99.90
29777;DHT22;16677;52.224;7.484;2023-08-31T14:23:08;17.80;99.90
29777;DHT22;16677;52.224;7.484;2023-08-31T14:25:35;17.90;99.90
29777;DHT22;16677;52.224;7.484;2023-08-31T14:28:02;17.80;99.90
29777;DHT22;16677;52.224;7.484;2023-08-31T14:30:29;17.60;99.90
29777;DHT22;16677;52.224;7.484;2023-08-31T14:32:57;17.70;99.90
29777;DHT22;16677;52.224;7.484;2023-08-31T14:35:27;17.90;99.90
29777;DHT22;16677;52.224;7.484;2023-08-31T14:37:57;17.20;99.90
29777;DHT22;16677;52.224;7.484;2023-08-31T14:40:24;17.00;99.90
29777;DHT22;16677;52.224;7.484;2023-08-31T14:42:51;17.10;99.90
29777;DHT22;16677;52.224;7.484;2023-08-31T14:45:19;16.80;99.90
29777;DHT22;16677;52.224;7.484;2023-08-31T14:47:46;16.80;99.90
29777;DHT22;16677;52.224;7.484;2023-08-31T14:50:14;16.90;99.90
29777;DHT22;16677;52.224;7.484;2023-08-31T14:52:41;16.90;99.90
29777;DHT22;16677;52.224;7.484;2023-08-31T14:55:08;16.50;99.90
29777;DHT22;16677;52.224;7.484;2023-08-31T14:57:35;16.30;99.90
29777;DHT22;16677;52.224;7.484;2023-08-31T15:00:03;16.30;99.90
29777;DHT22;16677;52.224;7.484;2023-08-31T15:02:32;16.40;1.00
29777;DHT22;16677;52.224;7.484;2023-08-31T15:05:00;16.50;1.00
29777;DHT22;16677;52.224;7.484;2023-08-31T15:07:27;17.00;99.90
29777;DHT22;16677;52.224;7.484;2023-08-31T15:09:54;16.90;99.90
29777;DHT22;16677;52.224;7.484;2023-08-31T15:12:25;16.80;99.90
29777;DHT22;16677;52.224;7.484;2023-08-31T15:14:52;17.30;99.90
29777;DHT22;16677;52.224;7.484;2023-08-31T15:17:19;17.50;99.90
29777;DHT22;16677;52.224;7.484;2023-08-31T15:19:45;17.50;99.90
29777;DHT22;16677;52.224;7.484;2023-08-31T15:22:12;17.90;99.90
29777;DHT22;16677;52.224;7.484;2023-08-31T15:24:39;18.10;99.90
29777;DHT22;16677;52.224;7.484;2023-08-31T15:27:12;18.30;99.90
29777;DHT22;16677;52.224;7.484;2023-08-31T15:29:45;18.30;99.90
29777;DHT22;16677;52.224;7.484;2023-08-31T15:32:15;18.60;99.90
29777;DHT22;16677;52.224;7.484;2023-08-31T15:34:45;18.80;99.90
29777;DHT22;16677;52.224;7.484;2023-08-31T15:37:15;18.70;99.90
29777;DHT22;16677;52.224;7.484;2023-08-31T15:39:42;18.90;99.90
29777;DHT22;16677;52.224;7.484;2023-08-31T15:42:09;18.30;99.90
29777;DHT22;16677;52.224;7.484;2023-08-31T15:44:41;18.30;99.90
29777;DHT22;16677;52.224;7.484;2023-08-31T15:47:09;18.80;99.90
29777;DHT22;16677;52.224;7.484;2023-08-31T15:49:36;18.90;99.90
29777;DHT22;16677;52.224;7.484;2023-08-31T15:52:04;18.90;99.90
29777;DHT22;16677;52.224;7.484;2023-08-31T15:57:05;19.20;99.90
29777;DHT22;16677;52.224;7.484;2023-08-31T15:59:32;19.30;99.90
29777;DHT22;16677;52.224;7.484;2023-08-31T16:01:59;19.70;99.90
29777;DHT22;16677;52.224;7.484;2023-08-31T16:04:26;19.70;99.90